Brownsville South Padre Island International Airport
KBRO : now visible

Airfield :











YOU CAN JOIN US ON...

 
LOGIN :

Register | Disclaimer

   EN    FR    IT 

 









Legend :    VFR   Marginal VFR   IFR   Intensive IFR   Very Intensive IFR
Visi :
Ceiling :
>= 8 km
>= 3000ft
5 to 8 km
1000 to 3000 ft
1500m to 5 km
500 to 1000 ft
800 to 1500m
200 to 500 ft
< 800m
< 200 ft
Symbols :   Thunderstorms  Fog  Heavy snow  Heavy precipitations  Wind > 20 kt






- Airport Elevation : 22 ft
- IATA code : BRO


KBRO - Brownsville South Padre Island International

CURRENT METAR :
  • 140553Z AUTO 29005KT 10SM SCT013 OVC037 07/04 A3011 RMK AO2 RAB04E51 SLP195 P0001 60004 T00670039 10072 20061 400890056 58008

EXPIRED METARs :
  • 140515Z 29005KT 10SM -RA BKN014 OVC036 07/03 A3013 RMK AO2 RAB04 P0000 T00670033
  • 140453Z 30005KT 10SM BKN014 OVC036 07/03 A3013 RMK AO2 RAE50 SLP202 P0001 T00670033
  • 140353Z 33007KT 10SM -RA OVC012 06/03 A3014 RMK AO2 RAB14 SLP206 P0000 T00610028
  • 140336Z 32007KT 10SM -RA BKN013 BKN040 OVC100 07/03 A3015 RMK AO2 RAB14 P0000 T00670028

TAF KBRO
Valid from the 14 at 06:00 until the 15 at 06:00 UTC


140525Z 1406/1506 31007KT P6SM -RA OVC014
TEMPO 1406/1410 4SM -RA SCT014 BKN030
FM141800 32011KT P6SM OVC015



MET'MAP, your aeronautical weather chart ! - Copyright ORBIFLY December 2007 - Disclaimer

ORBIFLY MET'MAP TEAM :

Programming & Development : Alexandra Zaïnal
Concept & Development : Baudouin d'Aumeries
Co-Development & Prog : Marc-Olivier Méhu
Technical & hardware support : Manuel Goepfert

Contact : metmap@orbifly.com




SOURCES & CREDITS :

   NOAA       Earth
Advisory